Time;durP1;ratioP1;P1;durP2;ratioP2;P2;SDS_P1;SDS_P2;PMS_P1;PMS_P2;Temp;Humidity;BMP_temperature;BMP_pressure;BME280_temperature;BME280_humidity;BME280_pressure;Samples;Min_cycle;Max_cycle;Signal;HPM_P1;HPM_P2
2022/07/29 00:00:44;;;;;;;2.27;1.37;;;3.90;99.20;;;;;;4998273;28;20185;-73
2022/07/29 00:03:11;;;;;;;3.47;1.57;;;3.70;98.70;;;;;;4998477;28;20324;-73
2022/07/29 00:05:42;;;;;;;2.70;1.50;;;4.00;98.40;;;;;;4997423;28;20178;-73
2022/07/29 00:08:08;;;;;;;3.93;1.60;;;4.40;99.00;;;;;;4998768;28;20371;-74
2022/07/29 00:10:35;;;;;;;1.43;1.30;;;4.40;98.80;;;;;;4998251;28;20186;-72
2022/07/29 00:13:01;;;;;;;4.37;2.10;;;4.40;99.40;;;;;;4998494;28;20190;-74
2022/07/29 00:15:27;;;;;;;8.23;1.57;;;14.60;99.90;;;;;;4998103;28;20206;-74
2022/07/29 00:17:53;;;;;;;1.77;1.47;;;14.50;99.90;;;;;;5008658;28;20185;-73
2022/07/29 00:20:19;;;;;;;3.63;2.20;;;13.90;99.90;;;;;;4997591;28;20189;-73
2022/07/29 00:22:44;;;;;;;4.17;1.57;;;14.10;99.90;;;;;;4998346;28;20181;-73
2022/07/29 00:25:12;;;;;;;1.73;1.40;;;12.10;99.90;;;;;;4998073;28;20260;-73
2022/07/29 00:27:41;;;;;;;3.53;1.33;;;12.90;99.90;;;;;;4997665;28;20213;-72
2022/07/29 00:30:07;;;;;;;1.83;1.70;;;14.00;99.90;;;;;;4997967;28;20248;-73
2022/07/29 00:32:33;;;;;;;2.07;1.30;;;14.50;99.90;;;;;;4997698;28;20186;-73
2022/07/29 00:37:43;;;;;;;4.00;1.37;;;17.90;99.90;;;;;;4997470;28;20492;-74
2022/07/29 00:40:09;;;;;;;3.60;1.77;;;18.50;99.90;;;;;;4997712;28;20182;-72
2022/07/29 00:42:48;;;;;;;6.20;2.00;;;18.80;99.90;;;;;;4997205;28;20185;-74
2022/07/29 00:45:15;;;;;;;7.27;2.30;;;18.90;99.90;;;;;;5009942;28;20200;-73
2022/07/29 00:47:42;;;;;;;6.10;2.03;;;18.90;99.90;;;;;;4997536;28;20202;-73
2022/07/29 00:50:10;;;;;;;1.40;1.27;;;18.90;99.90;;;;;;4997213;28;20799;-73
2022/07/29 00:52:37;;;;;;;2.27;1.50;;;18.80;99.90;;;;;;4997418;28;20182;-74
2022/07/29 00:55:05;;;;;;;2.57;1.53;;;18.80;99.90;;;;;;4997250;28;20209;-73
2022/07/29 00:57:32;;;;;;;2.43;1.87;;;18.70;99.90;;;;;;4997245;28;20182;-72
2022/07/29 00:59:58;;;;;;;8.67;1.97;;;18.70;99.90;;;;;;4997318;28;20185;-73
2022/07/29 01:02:24;;;;;;;4.67;2.23;;;18.60;99.90;;;;;;4996963;28;20202;-73
2022/07/29 01:04:51;;;;;;;4.27;1.87;;;18.50;99.90;;;;;;4997387;28;20218;-73
2022/07/29 01:07:18;;;;;;;5.10;1.77;;;18.50;99.90;;;;;;4997160;28;20186;-74
2022/07/29 01:09:45;;;;;;;2.17;1.60;;;18.30;99.90;;;;;;4997300;28;20177;-74
2022/07/29 01:12:20;;;;;;;3.03;1.17;;;18.20;99.90;;;;;;4996914;28;20240;-74
2022/07/29 01:14:47;;;;;;;6.00;2.57;;;18.00;99.90;;;;;;4996574;28;20220;-73
2022/07/29 01:17:41;;;;;;;6.47;2.90;;;17.80;99.90;;;;;;4996129;28;20178;-74
2022/07/29 01:20:12;;;;;;;2.37;1.53;;;17.60;99.90;;;;;;4997324;28;20182;-73
2022/07/29 01:23:31;;;;;;;11.90;2.97;;;17.00;99.90;;;;;;4996629;28;20184;-72
2022/07/29 01:26:20;;;;;;;4.73;2.00;;;16.40;99.90;;;;;;4993719;28;20309;-72
2022/07/29 01:28:51;;;;;;;3.33;1.93;;;15.60;99.90;;;;;;4993759;28;20182;-73
2022/07/29 01:31:22;;;;;;;3.77;2.33;;;13.90;99.90;;;;;;4995939;28;20182;-73
2022/07/29 01:33:54;;;;;;;2.40;1.40;;;8.60;99.90;;;;;;4996809;28;20206;-74
2022/07/29 01:36:35;;;;;;;2.87;1.57;;;8.70;99.90;;;;;;5005326;28;20213;-74
2022/07/29 01:39:30;;;;;;;5.57;1.73;;;8.40;99.90;;;;;;4996586;28;20185;-73
2022/07/29 01:42:30;;;;;;;9.30;2.60;;;8.80;99.90;;;;;;4996444;28;20336;-73
2022/07/29 01:44:59;;;;;;;4.70;1.90;;;14.90;99.90;;;;;;4987769;28;20197;-74
2022/07/29 01:47:32;;;;;;;5.97;1.90;;;16.90;99.90;;;;;;4995845;28;20546;-74
2022/07/29 01:50:00;;;;;;;2.03;1.67;;;17.30;99.90;;;;;;4996395;28;20178;-73
2022/07/29 01:52:37;;;;;;;1.80;1.40;;;17.50;99.90;;;;;;4996426;28;20476;-74
2022/07/29 01:55:11;;;;;;;3.20;1.87;;;17.60;99.90;;;;;;4996066;28;20198;-74
2022/07/29 01:57:40;;;;;;;5.00;2.07;;;17.60;99.90;;;;;;4996894;28;20486;-75
2022/07/29 02:00:06;;;;;;;3.97;1.73;;;17.60;99.90;;;;;;4995856;28;20174;-74
2022/07/29 02:02:35;;;;;;;7.07;2.00;;;17.60;99.90;;;;;;4995837;28;20178;-75
2022/07/29 02:05:02;;;;;;;1.93;1.83;;;17.60;99.90;;;;;;4996068;28;20592;-74
2022/07/29 02:07:31;;;;;;;4.03;1.33;;;17.60;99.90;;;;;;4995883;28;20481;-73
2022/07/29 02:09:58;;;;;;;3.23;1.70;;;17.60;99.90;;;;;;4995325;28;20185;-74
2022/07/29 02:12:26;;;;;;;4.10;1.67;;;17.60;99.90;;;;;;4996071;28;20272;-73
2022/07/29 02:14:55;;;;;;;1.63;1.20;;;17.50;99.90;;;;;;4995486;28;20213;-74
2022/07/29 02:17:29;;;;;;;2.23;1.73;;;17.50;99.90;;;;;;4995845;28;20182;-73
2022/07/29 02:19:59;;;;;;;5.13;1.80;;;17.50;99.90;;;;;;4996472;28;20194;-75
2022/07/29 02:22:29;;;;;;;2.97;1.80;;;17.40;99.90;;;;;;4996463;28;20189;-76
2022/07/29 02:24:56;;;;;;;4.53;2.00;;;17.40;99.90;;;;;;4996541;28;20182;-74
2022/07/29 02:27:24;;;;;;;2.80;1.30;;;17.30;99.90;;;;;;5007885;28;20177;-75
2022/07/29 02:29:53;;;;;;;4.07;1.70;;;17.30;99.90;;;;;;4995966;28;20182;-78
2022/07/29 02:32:20;;;;;;;2.77;1.87;;;17.30;99.90;;;;;;4995254;28;20182;-75
2022/07/29 02:34:48;;;;;;;2.83;1.53;;;17.20;99.90;;;;;;4995795;28;20209;-73
2022/07/29 02:37:17;;;;;;;3.07;1.63;;;17.20;99.90;;;;;;5008087;28;20488;-74
2022/07/29 02:39:45;;;;;;;4.23;1.90;;;16.70;99.90;;;;;;4995519;28;20589;-74
2022/07/29 02:42:15;;;;;;;8.77;2.37;;;16.80;99.90;;;;;;4995832;28;20193;-74
2022/07/29 02:44:42;;;;;;;3.73;1.83;;;16.70;99.90;;;;;;4995189;28;20196;-74
2022/07/29 02:47:13;;;;;;;6.83;2.47;;;16.10;99.90;;;;;;4995527;28;20210;-74
2022/07/29 02:50:04;;;;;;;5.37;1.77;;;14.10;99.90;;;;;;4995521;28;20185;-73
2022/07/29 02:52:32;;;;;;;2.17;1.20;;;7.40;99.90;;;;;;5002103;28;20532;-74
2022/07/29 02:55:25;;;;;;;3.87;2.23;;;7.50;99.90;;;;;;4999089;28;20194;-73
2022/07/29 02:58:07;;;;;;;2.47;1.40;;;7.30;99.90;;;;;;4995744;28;20301;-74
2022/07/29 03:00:37;;;;;;;2.43;1.40;;;7.90;99.90;;;;;;4995555;28;20205;-74
2022/07/29 03:03:07;;;;;;;1.80;1.70;;;8.30;99.90;;;;;;4995488;28;20184;-73
2022/07/29 03:05:34;;;;;;;1.30;1.30;;;8.20;99.90;;;;;;4995488;28;20241;-73
2022/07/29 03:08:05;;;;;;;4.17;1.43;;;7.90;99.90;;;;;;5001151;28;20213;-73
2022/07/29 03:10:32;;;;;;;2.20;1.97;;;7.80;99.90;;;;;;4995377;28;20178;-73
2022/07/29 03:12:58;;;;;;;5.07;1.90;;;7.60;99.90;;;;;;5007705;28;20287;-74
2022/07/29 03:15:25;;;;;;;2.17;1.90;;;7.70;99.90;;;;;;4994840;28;20305;-73
2022/07/29 03:17:52;;;;;;;5.20;1.70;;;7.60;99.90;;;;;;4995640;28;20183;-73
2022/07/29 03:20:18;;;;;;;2.10;1.40;;;7.60;99.90;;;;;;4995253;28;20182;-73
2022/07/29 03:22:46;;;;;;;3.30;2.00;;;7.40;99.90;;;;;;4995408;28;20578;-72
2022/07/29 03:25:15;;;;;;;2.30;1.90;;;7.70;99.90;;;;;;4996321;28;20171;-73
2022/07/29 03:27:41;;;;;;;4.13;1.60;;;7.40;99.90;;;;;;5000436;28;20192;-74
2022/07/29 03:30:08;;;;;;;2.40;2.30;;;7.20;99.90;;;;;;4994902;28;20186;-73
2022/07/29 03:32:34;;;;;;;3.50;2.10;;;7.50;99.90;;;;;;4995600;28;20391;-72
2022/07/29 03:35:00;;;;;;;13.23;2.37;;;7.50;99.90;;;;;;4999938;28;20205;-76
2022/07/29 03:37:26;;;;;;;4.97;1.70;;;7.20;99.90;;;;;;4997310;28;20477;-77
2022/07/29 03:39:54;;;;;;;4.83;2.80;;;7.30;99.90;;;;;;4998344;28;20189;-75
2022/07/29 03:42:22;;;;;;;1.60;1.50;;;7.50;99.90;;;;;;5001788;28;20197;-73
2022/07/29 03:44:50;;;;;;;3.23;2.30;;;7.70;99.90;;;;;;5000413;28;20213;-72
2022/07/29 03:47:19;;;;;;;12.80;3.73;;;7.40;99.90;;;;;;4998748;28;20217;-74
2022/07/29 03:49:47;;;;;;;4.73;1.93;;;7.30;99.90;;;;;;4998804;28;20201;-74
2022/07/29 03:52:17;;;;;;;3.47;1.53;;;7.10;99.90;;;;;;5002952;28;20638;-72
2022/07/29 03:54:43;;;;;;;2.73;1.33;;;7.00;99.90;;;;;;4998581;28;20205;-74
2022/07/29 03:57:11;;;;;;;4.83;1.90;;;6.60;99.90;;;;;;4998273;28;20177;-73
2022/07/29 03:59:37;;;;;;;4.10;2.30;;;6.90;99.90;;;;;;4998355;28;20178;-73
2022/07/29 04:02:05;;;;;;;4.00;1.80;;;6.70;99.90;;;;;;4998273;28;20308;-74
2022/07/29 04:04:37;;;;;;;2.33;2.03;;;8.80;99.90;;;;;;4998316;28;20189;-74
2022/07/29 04:07:03;;;;;;;4.53;1.67;;;7.30;99.90;;;;;;4998344;28;20225;-73
2022/07/29 04:09:29;;;;;;;3.87;2.10;;;6.90;99.90;;;;;;4998179;28;20189;-75
2022/07/29 04:11:55;;;;;;;7.70;1.93;;;6.60;99.90;;;;;;4998052;28;20190;-75
2022/07/29 04:14:21;;;;;;;4.93;2.50;;;6.70;99.90;;;;;;4998162;28;20645;-74
2022/07/29 04:16:47;;;;;;;2.57;2.30;;;7.30;99.90;;;;;;5009438;28;20198;-75
2022/07/29 04:19:13;;;;;;;8.57;3.00;;;7.70;99.90;;;;;;4998200;28;20232;-74
2022/07/29 04:21:40;;;;;;;2.80;1.97;;;7.50;99.90;;;;;;4997929;28;20182;-74
2022/07/29 04:24:07;;;;;;;2.33;2.23;;;6.70;99.90;;;;;;4997989;28;20186;-74
2022/07/29 04:26:33;;;;;;;2.00;1.90;;;6.90;99.90;;;;;;5011500;28;20488;-74
2022/07/29 04:28:59;;;;;;;5.23;2.50;;;7.10;99.90;;;;;;4997060;28;20186;-73
2022/07/29 04:31:25;;;;;;;2.20;2.00;;;6.80;99.90;;;;;;4997881;28;20687;-73
2022/07/29 04:33:51;;;;;;;1.77;1.67;;;6.30;99.90;;;;;;4997778;28;20174;-73
2022/07/29 04:36:16;;;;;;;3.60;2.00;;;6.70;99.90;;;;;;4998004;28;20209;-73
2022/07/29 04:38:42;;;;;;;3.73;3.07;;;6.40;99.90;;;;;;4997558;28;20182;-73
2022/07/29 04:41:08;;;;;;;2.13;1.47;;;6.20;99.90;;;;;;4997479;28;20181;-71
2022/07/29 04:43:35;;;;;;;4.80;2.77;;;5.80;99.90;;;;;;4997070;28;20186;-74
2022/07/29 04:46:02;;;;;;;1.73;1.63;;;6.70;99.90;;;;;;5001307;28;20265;-74
2022/07/29 04:48:28;;;;;;;7.63;2.00;;;6.10;99.90;;;;;;4997642;28;20265;-74
2022/07/29 04:50:56;;;;;;;8.83;2.13;;;6.70;99.90;;;;;;4997299;28;20271;-74
2022/07/29 04:53:21;;;;;;;7.93;2.30;;;6.00;99.90;;;;;;4996206;28;20189;-74
2022/07/29 04:55:47;;;;;;;4.10;2.47;;;6.20;99.90;;;;;;4997065;28;20209;-73
2022/07/29 04:58:13;;;;;;;4.07;2.27;;;6.10;99.90;;;;;;4997082;28;20495;-73
2022/07/29 05:00:39;;;;;;;2.60;2.20;;;5.50;99.90;;;;;;4997614;28;20178;-72
2022/07/29 05:03:05;;;;;;;5.87;2.40;;;6.50;99.90;;;;;;4996916;28;20486;-72
2022/07/29 05:05:31;;;;;;;4.47;2.30;;;6.10;99.90;;;;;;4997141;28;20289;-72
2022/07/29 05:07:57;;;;;;;5.43;2.27;;;5.80;99.90;;;;;;4997174;28;20205;-73
2022/07/29 05:10:22;;;;;;;3.73;2.00;;;5.30;99.90;;;;;;4996898;28;20486;-73
2022/07/29 05:12:48;;;;;;;2.63;2.43;;;4.90;99.90;;;;;;4996969;28;20186;-73
2022/07/29 05:15:14;;;;;;;5.47;3.03;;;4.90;99.90;;;;;;5010260;28;20601;-73
2022/07/29 05:17:40;;;;;;;7.87;3.23;;;4.70;99.90;;;;;;5009319;28;20274;-74
2022/07/29 05:20:07;;;;;;;7.30;3.27;;;4.70;99.90;;;;;;4996963;28;20264;-73
2022/07/29 05:22:33;;;;;;;4.27;2.30;;;4.90;99.90;;;;;;4996707;28;20225;-73
2022/07/29 05:24:59;;;;;;;7.27;2.97;;;4.70;99.90;;;;;;4996582;28;20522;-73
2022/07/29 05:27:25;;;;;;;5.47;3.40;;;4.90;99.90;;;;;;4996600;28;20182;-74
2022/07/29 05:29:51;;;;;;;3.17;2.60;;;4.90;99.90;;;;;;4996742;28;20208;-73
2022/07/29 05:32:17;;;;;;;3.03;2.67;;;4.60;99.90;;;;;;4996661;28;20189;-72
2022/07/29 05:34:43;;;;;;;3.87;3.50;;;4.60;99.90;;;;;;5002701;28;20214;-75
2022/07/29 05:37:09;;;;;;;4.10;2.57;;;4.60;99.90;;;;;;4997703;28;20178;-74
2022/07/29 05:39:34;;;;;;;5.57;3.47;;;4.70;99.90;;;;;;5003428;28;20631;-72
2022/07/29 05:42:01;;;;;;;7.53;3.13;;;5.30;99.90;;;;;;5007270;28;20475;-75
2022/07/29 05:44:28;;;;;;;3.70;2.60;;;5.60;99.90;;;;;;5001148;28;20185;-73
2022/07/29 05:46:53;;;;;;;6.10;3.03;;;5.90;99.90;;;;;;4996460;28;20660;-73
2022/07/29 05:49:20;;;;;;;3.33;2.90;;;5.60;99.90;;;;;;4996519;28;20182;-72
2022/07/29 05:51:48;;;;;;;5.77;3.37;;;6.00;99.90;;;;;;4996624;28;20186;-75
2022/07/29 05:54:14;;;;;;;3.40;3.17;;;6.10;99.90;;;;;;4995802;28;20256;-74
2022/07/29 05:56:40;;;;;;;2.77;2.50;;;5.90;99.90;;;;;;4996798;28;20170;-74
2022/07/29 05:59:06;;;;;;;4.03;3.63;;;5.50;99.90;;;;;;4999282;28;20212;-73
2022/07/29 06:01:32;;;;;;;3.60;3.17;;;5.80;99.90;;;;;;4999912;28;20210;-75
2022/07/29 06:04:00;;;;;;;3.57;3.30;;;5.50;99.90;;;;;;5001968;28;20189;-74
2022/07/29 06:06:26;;;;;;;9.57;4.00;;;6.50;99.90;;;;;;4996197;28;20181;-76
2022/07/29 06:08:52;;;;;;;4.03;3.17;;;6.00;99.90;;;;;;4995961;28;20181;-76
2022/07/29 06:11:17;;;;;;;5.53;4.23;;;6.20;99.90;;;;;;5008762;28;20578;-74
2022/07/29 06:13:43;;;;;;;5.33;3.13;;;6.20;99.90;;;;;;4998640;28;20182;-76
2022/07/29 06:16:09;;;;;;;3.30;3.03;;;6.10;99.90;;;;;;4999895;28;20193;-73
2022/07/29 06:18:35;;;;;;;3.53;2.57;;;6.00;99.90;;;;;;5006997;28;20196;-75
2022/07/29 06:21:01;;;;;;;3.87;3.37;;;8.20;99.90;;;;;;5005411;28;20182;-75
2022/07/29 06:23:27;;;;;;;4.13;3.17;;;6.30;99.90;;;;;;5003013;28;20173;-74
2022/07/29 06:25:52;;;;;;;6.17;3.30;;;5.60;99.90;;;;;;5000592;28;20269;-76
2022/07/29 06:28:18;;;;;;;7.27;3.83;;;5.40;99.90;;;;;;5003478;28;21632;-75
2022/07/29 06:30:44;;;;;;;3.70;3.33;;;5.70;99.90;;;;;;5006550;28;20221;-74
2022/07/29 06:33:16;;;;;;;7.17;5.53;;;5.60;99.90;;;;;;5007547;28;20207;-75
2022/07/29 06:35:43;;;;;;;5.53;4.27;;;5.90;99.90;;;;;;4994200;28;20245;-77
2022/07/29 06:38:09;;;;;;;4.80;4.33;;;6.10;99.90;;;;;;5008505;28;20186;-70
2022/07/29 06:43:20;;;;;;;6.70;4.67;;;5.50;99.90;;;;;;4996387;28;20488;-72
2022/07/29 06:45:46;;;;;;;5.23;3.53;;;5.80;99.90;;;;;;4995948;28;20248;-71
2022/07/29 06:48:12;;;;;;;6.57;4.27;;;6.20;99.90;;;;;;4995538;28;20621;-72
2022/07/29 06:50:37;;;;;;;7.83;3.63;;;6.60;99.90;;;;;;4995188;28;20273;-69
2022/07/29 06:53:03;;;;;;;6.00;3.73;;;6.20;99.90;;;;;;4995277;28;20570;-67
2022/07/29 06:55:29;;;;;;;3.73;3.40;;;6.50;99.90;;;;;;4995437;28;20198;-71
2022/07/29 06:57:55;;;;;;;4.83;3.63;;;7.10;99.90;;;;;;4995735;28;20181;-69
2022/07/29 07:00:21;;;;;;;16.73;4.30;;;7.30;99.90;;;;;;4995425;28;20216;-68
2022/07/29 07:02:46;;;;;;;4.83;3.67;;;7.90;99.90;;;;;;5005781;28;20188;-68
2022/07/29 07:05:12;;;;;;;4.03;3.40;;;7.50;99.90;;;;;;4995375;28;20791;-72
2022/07/29 07:07:38;;;;;;;5.33;3.23;;;7.30;99.90;;;;;;4995275;28;20189;-71
2022/07/29 07:10:04;;;;;;;7.23;4.20;;;8.40;99.90;;;;;;4995602;28;20211;-70
2022/07/29 07:12:30;;;;;;;5.53;3.43;;;9.10;99.90;;;;;;4995288;28;20218;-72
2022/07/29 07:14:56;;;;;;;7.03;3.27;;;9.70;99.90;;;;;;5001122;28;20229;-69
2022/07/29 07:17:21;;;;;;;6.60;3.43;;;9.50;99.90;;;;;;4999303;28;20579;-69
2022/07/29 07:19:47;;;;;;;5.40;3.57;;;9.40;99.90;;;;;;4999636;28;20181;-71
2022/07/29 07:22:13;;;;;;;4.50;3.17;;;9.40;99.90;;;;;;4998954;28;20174;-73
2022/07/29 07:24:38;;;;;;;5.50;3.47;;;9.50;99.90;;;;;;5011404;28;20487;-70
2022/07/29 07:27:04;;;;;;;3.63;2.97;;;9.20;99.90;;;;;;5011387;28;20268;-70
2022/07/29 07:29:33;;;;;;;5.27;3.83;;;8.70;99.90;;;;;;5000590;28;20178;-70
2022/07/29 07:31:59;;;;;;;3.73;3.33;;;8.60;99.90;;;;;;4999449;28;20193;-70
2022/07/29 07:34:24;;;;;;;4.00;3.57;;;8.30;99.90;;;;;;4999639;28;20201;-70
2022/07/29 07:36:50;;;;;;;3.27;3.03;;;8.50;99.90;;;;;;5013304;28;20197;-70
2022/07/29 07:39:16;;;;;;;3.30;3.00;;;8.30;99.90;;;;;;5002751;28;20182;-70
2022/07/29 07:41:42;;;;;;;4.90;4.23;;;8.20;99.90;;;;;;5005748;28;20197;-70
2022/07/29 07:44:07;;;;;;;3.53;3.23;;;8.10;99.90;;;;;;5006086;28;20485;-71
2022/07/29 07:46:33;;;;;;;4.27;3.17;;;7.50;99.90;;;;;;5003721;28;20206;-71
2022/07/29 07:48:59;;;;;;;4.07;3.37;;;7.60;99.90;;;;;;4998982;28;20597;-69
2022/07/29 07:51:25;;;;;;;5.73;3.13;;;7.10;99.90;;;;;;4998740;28;20186;-71
2022/07/29 07:53:50;;;;;;;5.23;3.37;;;7.00;99.90;;;;;;4998481;28;20190;-70
2022/07/29 07:56:16;;;;;;;5.40;3.70;;;6.90;99.90;;;;;;4998644;28;20240;-70
2022/07/29 07:58:42;;;;;;;5.27;3.63;;;6.70;99.90;;;;;;5003661;28;20235;-71
2022/07/29 08:01:09;;;;;;;8.53;4.73;;;6.60;99.90;;;;;;4998463;28;20228;-72
2022/07/29 08:03:34;;;;;;;4.83;4.40;;;6.70;99.90;;;;;;4998562;28;20236;-70
2022/07/29 08:06:01;;;;;;;4.27;3.53;;;6.80;99.90;;;;;;4998425;28;20637;-70
2022/07/29 08:08:26;;;;;;;4.80;3.00;;;7.10;99.90;;;;;;4998028;28;20504;-71
2022/07/29 08:10:52;;;;;;;4.70;3.80;;;7.60;99.90;;;;;;4998364;28;20190;-71
2022/07/29 08:13:23;;;;;;;8.73;4.10;;;9.10;99.90;;;;;;4997801;28;20178;-71
2022/07/29 08:15:57;;;;;;;8.13;3.90;;;8.60;99.90;;;;;;4997999;28;20293;-71
2022/07/29 08:18:24;;;;;;;4.50;4.10;;;9.70;99.90;;;;;;4997622;28;20257;-70
2022/07/29 08:20:50;;;;;;;5.10;3.40;;;9.10;99.90;;;;;;4998072;28;20186;-70
2022/07/29 08:23:16;;;;;;;4.77;2.97;;;9.30;99.90;;;;;;4998165;28;20193;-71
2022/07/29 08:25:42;;;;;;;7.13;3.70;;;10.60;99.90;;;;;;4997275;28;20178;-71
2022/07/29 08:28:08;;;;;;;5.07;4.20;;;10.10;99.90;;;;;;4997857;28;20192;-70
2022/07/29 08:30:34;;;;;;;5.73;3.63;;;10.30;99.90;;;;;;4997645;28;20178;-69
2022/07/29 08:33:00;;;;;;;4.77;2.67;;;10.10;99.90;;;;;;4997596;28;20174;-71
2022/07/29 08:35:26;;;;;;;7.33;3.80;;;10.40;99.90;;;;;;4997400;28;20271;-71
2022/07/29 08:37:53;;;;;;;3.83;3.47;;;10.70;99.90;;;;;;4997809;28;20182;-70
2022/07/29 08:40:20;;;;;;;6.23;3.70;;;11.00;99.90;;;;;;4997761;28;20270;-71
2022/07/29 08:42:46;;;;;;;6.00;3.00;;;10.50;99.90;;;;;;4997498;28;20182;-70
2022/07/29 08:45:12;;;;;;;3.47;2.63;;;11.00;99.90;;;;;;4997867;28;20182;-71
2022/07/29 08:47:39;;;;;;;4.77;3.17;;;10.60;99.90;;;;;;5003301;28;20237;-71
2022/07/29 08:50:06;;;;;;;11.33;3.90;;;10.80;99.90;;;;;;4997497;28;20273;-69
2022/07/29 08:52:36;;;;;;;7.20;3.23;;;11.40;99.90;;;;;;4997534;28;20201;-72
2022/07/29 08:58:26;;;;;;;4.50;2.50;;;12.20;99.90;;;;;;4998270;28;20193;-71
2022/07/29 09:00:54;;;;;;;2.60;2.43;;;11.80;99.90;;;;;;5011277;28;20256;-70
2022/07/29 09:03:24;;;;;;;3.30;2.80;;;11.10;99.90;;;;;;4996307;28;20205;-72
2022/07/29 09:05:51;;;;;;;4.33;3.07;;;10.00;99.90;;;;;;5005730;28;20673;-71
2022/07/29 09:08:20;;;;;;;1.87;1.77;;;10.10;99.90;;;;;;4996987;28;20204;-70
2022/07/29 09:10:46;;;;;;;2.93;1.93;;;11.10;99.90;;;;;;4988635;28;20192;-72
2022/07/29 09:13:11;;;;;;;3.33;1.97;;;11.10;99.90;;;;;;5001113;28;20256;-70
2022/07/29 09:15:37;;;;;;;2.93;2.33;;;10.90;99.90;;;;;;5002707;28;20605;-71
2022/07/29 09:18:03;;;;;;;4.30;2.33;;;10.50;99.90;;;;;;5005625;28;20867;-73
2022/07/29 09:21:57;;;;;;;2.67;1.77;;;10.20;99.90;;;;;;5002196;28;20177;-71
2022/07/29 09:23:15;;;;;;;1.97;1.70;;;9.70;99.00;;;;;;5005307;28;20178;-71
2022/07/29 09:25:42;;;;;;;4.13;1.80;;;9.10;98.40;;;;;;5012780;28;20185;-70
2022/07/29 09:28:13;;;;;;;3.77;1.80;;;8.80;98.30;;;;;;4997385;28;20181;-71
2022/07/29 09:30:57;;;;;;;4.40;1.97;;;7.40;97.20;;;;;;4999275;28;20240;-71
2022/07/29 09:33:31;;;;;;;1.90;1.80;;;7.30;95.50;;;;;;5000049;28;20236;-70
2022/07/29 09:36:04;;;;;;;4.20;1.77;;;7.70;96.10;;;;;;5004290;28;20273;-70
2022/07/29 09:38:31;;;;;;;1.50;1.40;;;22.40;99.90;;;;;;5004299;28;20487;-71
2022/07/29 09:40:58;;;;;;;2.53;2.30;;;22.50;99.80;;;;;;5004156;28;20189;-69
2022/07/29 09:43:24;;;;;;;1.70;1.60;;;22.70;99.90;;;;;;4996084;28;20178;-70
2022/07/29 09:45:49;;;;;;;3.17;1.40;;;22.10;99.90;;;;;;4994986;28;20210;-72
2022/07/29 09:48:20;;;;;;;4.13;1.93;;;1.40;93.30;;;;;;4997423;28;20599;-71
2022/07/29 09:50:49;;;;;;;3.53;1.10;;;-0.60;91.80;;;;;;5002393;28;20190;-68
2022/07/29 09:53:32;;;;;;;4.43;1.97;;;-11.70;86.30;;;;;;4996641;28;20186;-72
2022/07/29 09:55:58;;;;;;;5.33;2.20;;;-11.00;86.60;;;;;;4996238;28;20296;-68
2022/07/29 09:58:24;;;;;;;2.40;1.27;;;-12.30;86.90;;;;;;4996192;28;20265;-69
2022/07/29 10:00:51;;;;;;;5.87;3.33;;;-9.30;87.90;;;;;;4996188;28;20197;-72
2022/07/29 10:03:18;;;;;;;6.33;3.83;;;-14.10;84.60;;;;;;4996348;28;20205;-69
2022/07/29 10:05:45;;;;;;;2.70;2.50;;;-25.20;76.70;;;;;;4996666;28;20532;-68
2022/07/29 10:08:12;;;;;;;3.63;2.90;;;-25.80;75.30;;;;;;4997170;28;20265;-70
2022/07/29 10:10:41;;;;;;;1.63;1.33;;;-29.20;72.60;;;;;;4997429;28;20185;-71
2022/07/29 10:13:13;;;;;;;5.60;2.20;;;-36.20;67.30;;;;;;4997406;28;20574;-69
2022/07/29 10:15:43;;;;;;;4.77;1.97;;;-38.70;66.40;;;;;;4996901;28;20234;-70
2022/07/29 10:18:11;;;;;;;5.23;3.23;;;-40.00;63.70;;;;;;4996156;28;20182;-68
2022/07/29 10:20:38;;;;;;;2.60;2.40;;;-40.00;63.70;;;;;;4996242;28;20266;-69
2022/07/29 10:23:04;;;;;;;3.50;3.20;;;24.30;96.40;;;;;;4996065;28;20233;-67
2022/07/29 10:25:31;;;;;;;2.07;1.80;;;24.50;95.90;;;;;;4995711;28;20190;-68
2022/07/29 10:27:58;;;;;;;8.50;2.63;;;24.70;95.60;;;;;;4995915;28;20562;-69
2022/07/29 10:30:25;;;;;;;5.00;2.40;;;24.70;96.20;;;;;;4995628;28;20583;-69
2022/07/29 10:33:18;;;;;;;3.33;2.37;;;24.80;95.50;;;;;;4996016;28;20499;-70
2022/07/29 10:36:09;;;;;;;6.90;1.40;;;24.60;95.10;;;;;;4998791;28;20217;-70
2022/07/29 10:38:54;;;;;;;5.03;2.43;;;24.20;95.20;;;;;;5000697;28;20181;-70
2022/07/29 10:41:38;;;;;;;2.43;2.23;;;-40.00;58.20;;;;;;5005847;28;20226;-71
2022/07/29 10:44:12;;;;;;;2.37;2.17;;;-40.00;57.90;;;;;;5004817;28;20493;-69
2022/07/29 10:46:40;;;;;;;2.10;1.90;;;-38.00;60.10;;;;;;5000453;28;20678;-69
2022/07/29 10:49:07;;;;;;;6.40;4.10;;;-40.00;57.80;;;;;;5001577;28;20171;-69
2022/07/29 10:52:05;;;;;;;2.97;2.33;;;-40.00;58.90;;;;;;5000884;28;20477;-70
2022/07/29 10:54:44;;;;;;;4.53;2.27;;;-40.00;59.40;;;;;;4999620;28;20202;-71
2022/07/29 10:57:28;;;;;;;4.63;2.10;;;-37.30;58.40;;;;;;4999840;28;20204;-70
2022/07/29 11:00:09;;;;;;;9.30;2.73;;;23.10;92.80;;;;;;4999540;28;20185;-71
2022/07/29 11:02:44;;;;;;;2.60;2.47;;;26.00;92.60;;;;;;4999458;28;20174;-70
2022/07/29 11:05:18;;;;;;;2.97;2.40;;;26.00;92.50;;;;;;4999332;28;20264;-70
2022/07/29 11:08:12;;;;;;;5.90;2.00;;;25.90;93.00;;;;;;4999263;28;20185;-71
2022/07/29 11:10:39;;;;;;;7.77;2.53;;;25.90;93.30;;;;;;4999703;28;20214;-69
2022/07/29 11:13:05;;;;;;;4.37;1.60;;;25.80;92.50;;;;;;4999802;28;20189;-69
2022/07/29 11:15:57;;;;;;;1.67;1.57;;;26.00;91.30;;;;;;4999122;28;20212;-71
2022/07/29 11:18:23;;;;;;;2.50;1.77;;;25.80;90.80;;;;;;5003377;28;20186;-71
2022/07/29 11:20:52;;;;;;;6.50;2.10;;;25.70;91.30;;;;;;4999242;28;20201;-70
2022/07/29 11:23:39;;;;;;;5.53;1.77;;;25.80;91.60;;;;;;4999647;28;20180;-73
2022/07/29 11:26:14;;;;;;;4.57;2.47;;;26.10;91.80;;;;;;4999006;28;20182;-70
2022/07/29 11:28:49;;;;;;;3.13;1.43;;;26.30;91.50;;;;;;4998919;28;20178;-70
2022/07/29 11:31:19;;;;;;;4.63;1.83;;;26.50;89.70;;;;;;4999064;28;20193;-70
2022/07/29 11:33:45;;;;;;;2.83;1.83;;;26.60;90.10;;;;;;4999081;28;20845;-71
2022/07/29 11:36:12;;;;;;;4.30;2.10;;;26.70;90.30;;;;;;4998829;28;20214;-71
2022/07/29 11:38:39;;;;;;;1.87;1.77;;;2.20;74.40;;;;;;4998751;28;20182;-70
2022/07/29 11:41:24;;;;;;;3.57;1.87;;;6.20;76.10;;;;;;4999101;28;20186;-71
2022/07/29 11:43:54;;;;;;;4.47;2.77;;;4.80;74.40;;;;;;4998247;28;20177;-71
2022/07/29 11:46:42;;;;;;;3.37;1.97;;;4.90;70.00;;;;;;4998735;28;20272;-71
2022/07/29 11:49:09;;;;;;;7.73;2.50;;;3.90;70.60;;;;;;4998661;28;20182;-71
2022/07/29 11:51:39;;;;;;;2.13;1.97;;;5.50;72.10;;;;;;5015626;28;20230;-70
2022/07/29 11:54:09;;;;;;;2.83;2.20;;;8.20;74.50;;;;;;4998589;28;20281;-70
2022/07/29 11:56:43;;;;;;;3.90;1.97;;;9.70;71.50;;;;;;5002829;28;20185;-72
2022/07/29 11:59:09;;;;;;;6.77;2.80;;;8.50;75.30;;;;;;4998181;28;20177;-71
2022/07/29 12:01:35;;;;;;;3.83;1.90;;;7.90;73.60;;;;;;4998874;28;20205;-73
2022/07/29 12:04:06;;;;;;;3.70;2.97;;;8.50;72.00;;;;;;5003072;28;20266;-71
2022/07/29 12:06:33;;;;;;;4.73;3.00;;;5.80;69.20;;;;;;5017743;28;20185;-70
2022/07/29 12:09:00;;;;;;;9.10;2.30;;;7.10;70.50;;;;;;5001536;28;20178;-71
2022/07/29 12:11:26;;;;;;;2.70;2.33;;;8.50;71.70;;;;;;4997866;28;20174;-70
2022/07/29 12:13:52;;;;;;;3.60;2.50;;;7.40;71.90;;;;;;4998397;28;20178;-72
2022/07/29 12:16:20;;;;;;;3.77;2.60;;;4.30;71.50;;;;;;4997772;28;20292;-71
2022/07/29 12:19:02;;;;;;;7.70;2.63;;;12.40;69.40;;;;;;4998307;28;20178;-72
2022/07/29 12:21:29;;;;;;;3.73;2.07;;;14.00;69.80;;;;;;5004336;28;20178;-70
2022/07/29 12:23:56;;;;;;;3.80;2.30;;;16.70;69.10;;;;;;5006298;28;20268;-71
2022/07/29 12:26:21;;;;;;;5.00;2.67;;;30.10;77.70;;;;;;5010248;28;20174;-70
2022/07/29 12:28:48;;;;;;;3.83;3.17;;;31.20;78.70;;;;;;5005431;28;20185;-70
2022/07/29 12:31:15;;;;;;;4.40;2.95;;;30.50;74.50;;;;;;5007384;28;20177;-70
2022/07/29 12:33:42;;;;;;;5.10;3.30;;;22.90;65.60;;;;;;5003707;28;20264;-72
2022/07/29 12:36:08;;;;;;;6.25;3.10;;;24.40;71.00;;;;;;4998840;28;20241;-70
2022/07/29 12:38:35;;;;;;;5.13;4.00;;;24.60;69.10;;;;;;4997980;28;20378;-71
2022/07/29 12:41:03;;;;;;;4.75;2.53;;;29.00;73.10;;;;;;5003433;28;20761;-70
2022/07/29 12:43:28;;;;;;;2.60;2.40;;;29.60;76.30;;;;;;5006630;28;20717;-69
2022/07/29 12:45:56;;;;;;;2.28;1.83;;;29.80;75.20;;;;;;4997915;28;20242;-71
2022/07/29 12:48:43;;;;;;;2.67;2.47;;;29.60;75.00;;;;;;4999690;28;20204;-71
2022/07/29 12:51:11;;;;;;;4.07;2.35;;;30.00;73.70;;;;;;4999901;28;20240;-68
2022/07/29 12:53:37;;;;;;;12.90;2.78;;;30.10;71.40;;;;;;5000922;28;20638;-71
2022/07/29 12:56:05;;;;;;;4.22;2.45;;;30.90;73.60;;;;;;4999904;28;20519;-70
2022/07/29 12:58:42;;;;;;;3.45;2.47;;;30.20;70.70;;;;;;4997407;28;20202;-70
2022/07/29 13:01:11;;;;;;;3.47;2.25;;;22.90;63.30;;;;;;4997221;28;20189;-70
2022/07/29 13:03:54;;;;;;;3.05;2.28;;;27.70;66.40;;;;;;4997130;28;20237;-72
2022/07/29 13:06:42;;;;;;;3.80;2.42;;;30.20;68.10;;;;;;4997303;28;20186;-71
2022/07/29 13:09:19;;;;;;;3.20;2.40;;;23.70;64.80;;;;;;4996819;28;20201;-69